Terminal Aerodrome Forecast
Issued by NWS

Home | Current Version | Previous Version | Text Only | Print | Product List | Glossary Off
Versions: 1 2 3 4 5 6 7 8 9 10 11 12 13 14 15

852
FTUS43 KGRB 292354
TAFAUW
TAF
KAUW 292354Z 3000/3024 10007KT P6SM SCT035 BKN050
     FM300200 VRB03KT P6SM FEW070 SCT120
     FM301500 09006KT P6SM SCT035=

USA.gov is the U.S. government's official web portal to all federal, state and local government web resources and services.